Time;durP1;ratioP1;P1;durP2;ratioP2;P2;SDS_P1;SDS_P2;PMS_P1;PMS_P2;Temp;Humidity;BMP_temperature;BMP_pressure;BME280_temperature;BME280_humidity;BME280_pressure;Samples;Min_cycle;Max_cycle;Signal;HPM_P1;HPM_P2
2021/11/29 00:00:20;;;;;;;0.40;0.30;;;;;;;3.94;100.00;99287.69;5055864;28;20462;-71
2021/11/29 00:02:52;;;;;;;0.40;0.20;;;;;;;3.92;100.00;99298.69;5055867;28;20491;-71
2021/11/29 00:05:21;;;;;;;0.40;0.30;;;;;;;3.93;100.00;99304.84;5055582;28;20419;-71
2021/11/29 00:07:48;;;;;;;0.40;0.30;;;;;;;4.00;100.00;99297.25;5055693;28;20486;-71
2021/11/29 00:10:15;;;;;;;0.40;0.20;;;;;;;4.04;100.00;99301.75;5055604;28;20462;-71
2021/11/29 00:12:44;;;;;;;0.40;0.30;;;;;;;4.05;100.00;99300.66;5055744;28;20568;-71
2021/11/29 00:15:13;;;;;;;0.40;0.20;;;;;;;4.07;100.00;99303.03;5055649;28;20442;-71
2021/11/29 00:17:40;;;;;;;0.40;0.20;;;;;;;4.11;100.00;99304.06;5055637;28;20449;-71
2021/11/29 00:20:09;;;;;;;0.40;0.30;;;;;;;4.15;100.00;99305.06;5055202;28;20986;-71
2021/11/29 00:22:37;;;;;;;1.23;1.23;;;;;;;4.12;100.00;99310.19;5055198;28;20817;-71
2021/11/29 00:25:05;;;;;;;0.40;0.20;;;;;;;4.04;100.00;99317.03;5055407;28;20446;-71
2021/11/29 00:27:32;;;;;;;0.40;0.30;;;;;;;4.10;100.00;99315.06;5055090;28;20466;-71
2021/11/29 00:30:00;;;;;;;0.77;0.77;;;;;;;4.11;100.00;99314.78;5055321;28;20516;-71
2021/11/29 00:32:27;;;;;;;0.40;0.20;;;;;;;4.17;100.00;99315.50;5055230;28;20439;-73
2021/11/29 00:34:53;;;;;;;0.50;0.40;;;;;;;4.13;100.00;99317.97;5054782;28;20454;-71
2021/11/29 00:37:20;;;;;;;0.40;0.30;;;;;;;4.06;100.00;99317.53;5054944;28;20504;-73
2021/11/29 00:39:47;;;;;;;0.40;0.40;;;;;;;4.13;100.00;99317.19;5055134;28;20516;-72
2021/11/29 00:42:14;;;;;;;0.40;0.20;;;;;;;4.07;100.00;99312.97;5055104;28;20446;-72
2021/11/29 00:44:40;;;;;;;0.40;0.30;;;;;;;4.12;100.00;99310.19;5054792;28;20932;-72
2021/11/29 00:47:09;;;;;;;2.40;1.60;;;;;;;4.17;100.00;99308.28;5055016;28;20450;-72
2021/11/29 00:49:35;;;;;;;0.40;0.30;;;;;;;4.15;100.00;99315.00;5054776;28;20478;-72
2021/11/29 00:52:02;;;;;;;0.40;0.30;;;;;;;4.17;100.00;99318.19;5054614;28;20505;-72
2021/11/29 00:54:29;;;;;;;0.40;0.30;;;;;;;4.14;100.00;99319.56;5054944;28;20450;-72
2021/11/29 00:56:56;;;;;;;0.40;0.20;;;;;;;4.11;100.00;99322.00;5054840;28;20439;-72
2021/11/29 00:59:23;;;;;;;0.40;0.30;;;;;;;4.10;100.00;99323.91;5054608;28;20438;-72
2021/11/29 01:01:49;;;;;;;0.40;0.30;;;;;;;4.10;100.00;99331.16;5053387;28;20443;-72
2021/11/29 01:04:17;;;;;;;0.40;0.30;;;;;;;4.10;100.00;99334.63;5054728;28;20458;-72
2021/11/29 01:06:45;;;;;;;0.40;0.30;;;;;;;4.09;100.00;99333.03;5053986;28;20875;-72
2021/11/29 01:09:11;;;;;;;3.40;1.23;;;;;;;4.06;100.00;99333.59;5054177;28;20996;-72
2021/11/29 01:11:38;;;;;;;0.40;0.30;;;;;;;4.01;100.00;99331.00;5054209;28;20459;-72
2021/11/29 01:14:05;;;;;;;0.40;0.30;;;;;;;4.03;100.00;99331.53;5054179;28;20446;-72
2021/11/29 01:16:33;;;;;;;0.40;0.20;;;;;;;3.91;100.00;99331.13;5054475;28;20487;-72
2021/11/29 01:18:59;;;;;;;0.50;0.40;;;;;;;3.94;100.00;99336.72;5054140;28;20442;-72
2021/11/29 01:21:28;;;;;;;0.40;0.30;;;;;;;3.93;100.00;99332.44;5065969;22;20498;-85
2021/11/29 01:23:55;;;;;;;0.40;0.20;;;;;;;3.94;100.00;99342.06;5058538;28;20810;-84
2021/11/29 01:26:21;;;;;;;0.40;0.20;;;;;;;3.98;100.00;99353.78;5058303;28;20453;-83
2021/11/29 01:28:48;;;;;;;0.40;0.30;;;;;;;3.95;100.00;99351.69;5058057;28;20486;-84
2021/11/29 01:31:15;;;;;;;0.40;0.30;;;;;;;3.99;100.00;99352.72;5058354;28;20426;-83
2021/11/29 01:33:42;;;;;;;2.67;2.50;;;;;;;3.99;100.00;99346.56;5058279;28;20470;-83
2021/11/29 01:36:09;;;;;;;0.40;0.30;;;;;;;4.01;100.00;99350.53;5058241;28;20437;-83
2021/11/29 01:38:37;;;;;;;0.40;0.20;;;;;;;4.04;100.00;99349.19;5058113;28;20442;-83
2021/11/29 01:41:04;;;;;;;0.40;0.30;;;;;;;4.04;100.00;99346.50;5057476;28;20443;-83
2021/11/29 01:43:32;;;;;;;0.40;0.30;;;;;;;4.05;100.00;99348.09;5057267;28;20451;-83
2021/11/29 01:45:59;;;;;;;0.40;0.20;;;;;;;4.08;100.00;99357.44;5056910;28;20438;-83
2021/11/29 01:48:28;;;;;;;0.40;0.30;;;;;;;4.11;100.00;99351.50;5057049;28;20504;-83
2021/11/29 01:50:59;;;;;;;0.90;0.90;;;;;;;4.09;100.00;99354.47;5056487;28;20927;-83
2021/11/29 01:53:28;;;;;;;0.40;0.30;;;;;;;3.97;100.00;99359.44;5057365;28;20488;-83
2021/11/29 01:55:58;;;;;;;1.17;1.17;;;;;;;4.03;100.00;99355.63;5057579;28;20430;-82
2021/11/29 01:58:25;;;;;;;0.40;0.30;;;;;;;4.06;100.00;99360.38;5057360;28;20434;-82
2021/11/29 02:00:57;;;;;;;1.17;1.07;;;;;;;4.01;100.00;99358.56;5057425;28;20442;-82
2021/11/29 02:03:25;;;;;;;0.40;0.20;;;;;;;3.89;100.00;99360.88;5060802;28;20466;-83
2021/11/29 02:05:52;;;;;;;0.40;0.30;;;;;;;3.86;100.00;99358.78;5061197;28;20457;-83
2021/11/29 02:08:19;;;;;;;3.70;1.90;;;;;;;3.80;100.00;99360.69;5059685;28;20526;-83
2021/11/29 02:10:46;;;;;;;0.40;0.30;;;;;;;3.72;100.00;99366.72;5059923;28;20442;-83
2021/11/29 02:13:17;;;;;;;0.40;0.40;;;;;;;3.67;100.00;99368.63;5059442;28;21022;-83
2021/11/29 02:15:50;;;;;;;0.50;0.50;;;;;;;3.62;100.00;99364.13;5058985;28;20415;-83
2021/11/29 02:18:18;;;;;;;1.53;1.43;;;;;;;3.58;100.00;99365.78;5059089;28;20426;-83
2021/11/29 02:20:59;;;;;;;0.40;0.30;;;;;;;3.57;100.00;99374.09;5058850;28;20447;-83
2021/11/29 02:23:26;;;;;;;0.40;0.30;;;;;;;3.53;100.00;99374.66;5057887;28;20462;-83
2021/11/29 02:25:53;;;;;;;0.40;0.30;;;;;;;3.51;100.00;99374.16;5058355;28;20446;-83
2021/11/29 02:28:21;;;;;;;0.40;0.30;;;;;;;3.49;100.00;99367.50;5058836;28;20769;-83
2021/11/29 02:30:48;;;;;;;0.47;0.30;;;;;;;3.47;100.00;99365.09;5058346;28;20446;-83
2021/11/29 02:33:15;;;;;;;0.43;0.40;;;;;;;3.45;100.00;99369.97;5057925;28;20470;-82
2021/11/29 02:35:42;;;;;;;0.40;0.30;;;;;;;3.42;100.00;99375.06;5058210;28;20442;-83
2021/11/29 02:38:10;;;;;;;0.40;0.30;;;;;;;3.36;100.00;99374.31;5057523;28;20520;-83
2021/11/29 02:40:36;;;;;;;0.40;0.30;;;;;;;3.35;100.00;99385.31;5057579;28;20442;-83
2021/11/29 02:43:04;;;;;;;0.40;0.30;;;;;;;3.32;100.00;99373.31;5058316;28;20463;-83
2021/11/29 02:45:30;;;;;;;0.40;0.20;;;;;;;3.35;100.00;99377.28;5058381;28;20846;-83
2021/11/29 02:47:57;;;;;;;0.40;0.23;;;;;;;3.39;100.00;99380.97;5058216;28;20461;-83
2021/11/29 02:50:24;;;;;;;0.40;0.30;;;;;;;3.42;100.00;99375.88;5058058;28;20564;-83
2021/11/29 02:52:51;;;;;;;0.47;0.30;;;;;;;3.38;100.00;99385.53;5057832;28;20462;-83
2021/11/29 02:55:19;;;;;;;0.50;0.40;;;;;;;3.41;100.00;99371.59;5057855;28;20434;-83
2021/11/29 02:57:46;;;;;;;0.40;0.30;;;;;;;3.43;100.00;99368.63;5058346;28;20438;-83
2021/11/29 03:00:13;;;;;;;0.40;0.30;;;;;;;3.45;100.00;99372.63;5057620;28;20461;-83
2021/11/29 03:02:40;;;;;;;0.40;0.27;;;;;;;3.43;100.00;99371.31;5058105;28;20473;-83
2021/11/29 03:05:08;;;;;;;0.40;0.30;;;;;;;3.45;100.00;99377.16;5057454;28;20443;-83
2021/11/29 03:07:35;;;;;;;12.00;11.33;;;;;;;3.47;100.00;99375.03;5059151;28;20442;-83
2021/11/29 03:10:02;;;;;;;0.40;0.30;;;;;;;3.33;100.00;99382.13;5058350;28;20482;-83
2021/11/29 03:12:30;;;;;;;0.40;0.30;;;;;;;3.35;100.00;99387.97;5058083;28;20458;-84
2021/11/29 03:14:57;;;;;;;0.40;0.30;;;;;;;3.39;100.00;99383.66;5056017;28;20450;-83
2021/11/29 03:17:24;;;;;;;1.07;0.93;;;;;;;3.39;100.00;99384.47;5055217;28;20441;-83
2021/11/29 03:19:51;;;;;;;0.40;0.30;;;;;;;3.35;100.00;99383.44;5055799;28;20504;-83
2021/11/29 03:22:18;;;;;;;13.73;12.97;;;;;;;3.36;100.00;99379.66;5055648;28;20846;-82
2021/11/29 03:24:46;;;;;;;0.40;0.20;;;;;;;3.39;100.00;99386.34;5057503;28;20928;-84
2021/11/29 03:27:15;;;;;;;0.40;0.30;;;;;;;3.43;100.00;99374.78;5060651;28;20493;-82
2021/11/29 03:29:44;;;;;;;0.40;0.30;;;;;;;3.42;100.00;99383.09;5060084;28;20494;-82
2021/11/29 03:32:11;;;;;;;0.40;0.27;;;;;;;3.40;100.00;99386.03;5060486;28;20457;-83
2021/11/29 03:34:38;;;;;;;0.40;0.30;;;;;;;3.44;100.00;99391.63;5060695;28;20537;-83
2021/11/29 03:37:05;;;;;;;4.77;4.27;;;;;;;3.51;100.00;99382.19;5059653;28;20442;-83
2021/11/29 03:39:33;;;;;;;0.40;0.30;;;;;;;3.54;100.00;99372.78;5059840;28;20469;-82
2021/11/29 03:42:04;;;;;;;1.90;1.80;;;;;;;3.53;100.00;99382.69;5059452;28;20451;-82
2021/11/29 03:44:31;;;;;;;0.40;0.30;;;;;;;3.61;100.00;99391.19;5060014;28;20442;-83
2021/11/29 03:46:59;;;;;;;0.40;0.20;;;;;;;3.57;100.00;99385.59;5059935;28;20446;-83
2021/11/29 03:49:26;;;;;;;0.40;0.30;;;;;;;3.59;100.00;99380.78;5059532;28;21010;-82
2021/11/29 03:51:53;;;;;;;0.40;0.30;;;;;;;3.58;100.00;99378.38;5059579;28;20438;-83
2021/11/29 03:54:20;;;;;;;0.40;0.30;;;;;;;3.64;100.00;99382.59;5059103;28;20469;-83
2021/11/29 03:56:47;;;;;;;0.40;0.30;;;;;;;3.66;100.00;99380.44;5059819;28;20446;-83
2021/11/29 03:59:14;;;;;;;0.40;0.30;;;;;;;3.61;100.00;99381.28;5059168;28;20939;-82
2021/11/29 04:01:43;;;;;;;0.40;0.20;;;;;;;3.59;100.00;99386.13;5059312;28;20919;-82
2021/11/29 04:04:11;;;;;;;0.40;0.30;;;;;;;3.59;100.00;99383.47;5059395;28;20551;-82
2021/11/29 04:06:39;;;;;;;0.40;0.30;;;;;;;3.56;100.00;99384.03;5059358;28;20495;-82
2021/11/29 04:09:06;;;;;;;0.40;0.30;;;;;;;3.57;100.00;99382.94;5059172;28;20492;-83
2021/11/29 04:11:33;;;;;;;0.40;0.30;;;;;;;3.59;100.00;99380.78;5059290;28;20450;-82
2021/11/29 04:14:00;;;;;;;0.50;0.40;;;;;;;3.59;100.00;99380.78;5059293;28;20474;-82
2021/11/29 04:16:27;;;;;;;0.40;0.30;;;;;;;3.55;100.00;99379.75;5059009;28;20446;-83
2021/11/29 04:18:53;;;;;;;0.40;0.30;;;;;;;3.52;100.00;99386.47;5059033;28;20955;-83
2021/11/29 04:21:22;;;;;;;0.50;0.40;;;;;;;3.61;100.00;99386.63;5059364;28;20512;-82
2021/11/29 04:23:48;;;;;;;2.40;2.30;;;;;;;3.65;100.00;99376.97;5058634;28;20455;-82
2021/11/29 04:26:18;;;;;;;0.40;0.30;;;;;;;3.59;100.00;99380.78;5059567;28;20790;-82
2021/11/29 04:28:46;;;;;;;0.40;0.30;;;;;;;3.60;100.00;99384.25;5059770;28;20817;-83
2021/11/29 04:31:13;;;;;;;2.93;2.73;;;;;;;3.60;100.00;99382.38;5058715;28;20528;-82
2021/11/29 04:33:40;;;;;;;0.40;0.30;;;;;;;3.67;100.00;99382.03;5058681;28;20477;-82
2021/11/29 04:36:07;;;;;;;0.40;0.20;;;;;;;3.71;100.00;99383.03;5058036;28;20431;-83
2021/11/29 04:38:35;;;;;;;0.40;0.30;;;;;;;3.70;100.00;99387.59;5058391;28;20449;-82
2021/11/29 04:41:02;;;;;;;0.40;0.23;;;;;;;3.66;100.00;99381.22;5058601;28;20492;-83
2021/11/29 04:43:29;;;;;;;0.73;0.73;;;;;;;3.65;100.00;99376.97;5058707;28;20454;-82
2021/11/29 04:45:56;;;;;;;0.40;0.30;;;;;;;3.69;100.00;99383.34;5058610;28;20475;-82
2021/11/29 04:48:23;;;;;;;0.50;0.50;;;;;;;3.69;100.00;99382.56;5058427;28;20476;-83
2021/11/29 04:50:50;;;;;;;0.40;0.20;;;;;;;3.71;100.00;99389.19;5057628;28;20540;-83
2021/11/29 04:53:17;;;;;;;0.40;0.20;;;;;;;3.72;100.00;99384.66;5057855;28;20466;-83
2021/11/29 04:55:45;;;;;;;0.40;0.30;;;;;;;3.74;100.00;99387.84;5057999;28;20434;-83
2021/11/29 04:58:12;;;;;;;0.40;0.30;;;;;;;3.77;100.00;99389.97;5057687;28;20446;-83
2021/11/29 05:00:39;;;;;;;0.40;0.30;;;;;;;3.74;100.00;99388.63;5058060;28;20451;-83
2021/11/29 05:03:06;;;;;;;0.40;0.30;;;;;;;3.78;100.00;99397.69;5057829;28;20470;-83
2021/11/29 05:05:32;;;;;;;0.40;0.30;;;;;;;3.77;100.00;99403.34;5057759;28;20446;-83
2021/11/29 05:07:59;;;;;;;0.40;0.30;;;;;;;3.73;100.00;99400.44;5057907;28;20504;-83
2021/11/29 05:10:26;;;;;;;0.40;0.30;;;;;;;3.72;100.00;99398.06;5057453;28;20513;-83
2021/11/29 05:12:54;;;;;;;0.40;0.20;;;;;;;3.72;100.00;99406.88;5057525;28;20458;-83
2021/11/29 05:15:21;;;;;;;0.40;0.27;;;;;;;3.74;100.00;99406.59;5057471;28;20811;-82
2021/11/29 05:17:47;;;;;;;0.40;0.20;;;;;;;3.77;100.00;99411.38;5058011;28;20439;-83
2021/11/29 05:20:14;;;;;;;0.40;0.20;;;;;;;3.77;100.00;99414.06;5057172;28;20442;-83
2021/11/29 05:22:41;;;;;;;0.40;0.20;;;;;;;3.71;100.00;99412.50;5056797;28;20473;-82
2021/11/29 05:25:09;;;;;;;0.40;0.30;;;;;;;3.64;100.00;99410.19;5057176;28;20841;-83
2021/11/29 05:27:36;;;;;;;0.40;0.20;;;;;;;3.66;100.00;99425.94;5057824;28;20447;-83
2021/11/29 05:30:05;;;;;;;0.40;0.20;;;;;;;3.57;100.00;99427.66;5057257;28;20860;-83
2021/11/29 05:32:32;;;;;;;0.40;0.30;;;;;;;3.54;100.00;99440.53;5057286;28;20458;-83
2021/11/29 05:34:59;;;;;;;0.40;0.30;;;;;;;3.53;100.00;99436.25;5058008;28;20504;-85
2021/11/29 05:37:26;;;;;;;0.40;0.30;;;;;;;3.59;100.00;99442.38;5059114;28;20430;-83
2021/11/29 05:39:53;;;;;;;0.40;0.30;;;;;;;3.61;100.00;99437.50;5058635;28;20434;-82
2021/11/29 05:42:19;;;;;;;0.40;0.30;;;;;;;3.63;100.00;99446.06;5058788;28;20457;-85
2021/11/29 05:44:49;;;;;;;0.40;0.30;;;;;;;3.65;100.00;99441.22;5058965;28;20954;-85
2021/11/29 05:47:18;;;;;;;0.70;0.43;;;;;;;3.71;100.00;99447.31;5057667;28;20439;-82
2021/11/29 05:49:45;;;;;;;1.53;1.43;;;;;;;3.70;100.00;99449.19;5062679;28;20482;-82
2021/11/29 05:52:12;;;;;;;0.40;0.20;;;;;;;3.64;100.00;99444.19;5063062;28;20443;-81
2021/11/29 05:54:39;;;;;;;0.40;0.30;;;;;;;3.59;100.00;99449.59;5063205;28;20430;-81
2021/11/29 05:57:06;;;;;;;4.33;3.93;;;;;;;3.54;100.00;99451.25;5062940;28;20469;-81
2021/11/29 05:59:33;;;;;;;0.40;0.20;;;;;;;3.57;100.00;99455.22;5058674;28;20439;-84
2021/11/29 06:02:00;;;;;;;0.40;0.30;;;;;;;3.61;100.00;99460.81;5057934;28;20858;-83
2021/11/29 06:04:28;;;;;;;5.50;4.43;;;;;;;3.56;100.00;99460.88;5057090;28;20462;-83
2021/11/29 06:06:56;;;;;;;1.27;1.17;;;;;;;3.52;100.00;99466.78;5057074;28;20438;-83
2021/11/29 06:09:23;;;;;;;0.97;0.97;;;;;;;3.52;100.00;99468.66;5057106;28;20431;-83
2021/11/29 06:11:49;;;;;;;0.40;0.20;;;;;;;3.52;100.00;99469.44;5057343;28;20500;-85
2021/11/29 06:14:16;;;;;;;0.50;0.40;;;;;;;3.54;100.00;99469.97;5057283;28;20462;-86
2021/11/29 06:16:43;;;;;;;1.60;1.37;;;;;;;3.56;100.00;99480.41;5056813;28;20503;-85
2021/11/29 06:19:10;;;;;;;33.03;13.50;;;;;;;3.57;100.00;99481.19;5056990;28;20442;-85
2021/11/29 06:21:38;;;;;;;0.60;0.60;;;;;;;3.58;100.00;99475.53;5056594;28;20460;-86
2021/11/29 06:24:05;;;;;;;0.40;0.30;;;;;;;3.59;100.00;99484.41;5057638;28;20478;-85
2021/11/29 06:26:32;;;;;;;0.40;0.30;;;;;;;3.57;100.00;99489.22;5058338;28;20442;-84
2021/11/29 06:28:59;;;;;;;0.40;0.20;;;;;;;3.58;100.00;99494.28;5057919;28;20454;-86
2021/11/29 06:31:26;;;;;;;0.40;0.37;;;;;;;3.51;100.00;99493.84;5057513;28;20528;-83
2021/11/29 06:33:52;;;;;;;0.40;0.30;;;;;;;3.54;100.00;99498.59;5057875;28;20462;-83
2021/11/29 06:36:19;;;;;;;0.40;0.30;;;;;;;3.54;100.00;99495.94;5057229;28;20446;-83
2021/11/29 06:38:49;;;;;;;0.40;0.30;;;;;;;3.54;100.00;99502.09;5057829;28;20488;-84
2021/11/29 06:41:19;;;;;;;0.40;0.30;;;;;;;3.54;100.00;99509.31;5058546;28;20472;-82
2021/11/29 06:43:46;;;;;;;0.40;0.20;;;;;;;3.55;100.00;99510.94;5058031;28;20466;-82
2021/11/29 06:46:13;;;;;;;0.40;0.20;;;;;;;3.53;100.00;99510.41;5056712;28;20431;-81
2021/11/29 06:48:40;;;;;;;0.40;0.30;;;;;;;3.52;100.00;99506.13;5059424;28;20434;-82
2021/11/29 06:51:06;;;;;;;1.13;0.93;;;;;;;3.53;100.00;99513.88;5056564;28;21013;-81
2021/11/29 06:53:33;;;;;;;0.40;0.30;;;;;;;3.58;100.00;99505.00;5056441;28;21002;-82
2021/11/29 06:56:02;;;;;;;0.40;0.30;;;;;;;3.58;100.00;99513.03;5056813;28;21007;-82
2021/11/29 06:58:29;;;;;;;0.40;0.30;;;;;;;3.54;100.00;99518.16;5057529;28;20824;-82
2021/11/29 07:00:57;;;;;;;0.40;0.30;;;;;;;3.50;100.00;99517.13;5060505;28;20511;-82
2021/11/29 07:03:24;;;;;;;0.40;0.30;;;;;;;3.48;100.00;99526.50;5060759;28;20500;-82
2021/11/29 07:05:51;;;;;;;0.40;0.30;;;;;;;3.39;100.00;99528.19;5062350;28;20500;-82
2021/11/29 07:08:18;;;;;;;0.40;0.30;;;;;;;3.44;100.00;99531.63;5062164;28;20465;-82
2021/11/29 07:10:47;;;;;;;0.40;0.30;;;;;;;3.49;100.00;99538.81;5062143;28;20489;-84
2021/11/29 07:13:16;;;;;;;0.40;0.30;;;;;;;3.44;100.00;99536.97;5062381;28;20503;-82
2021/11/29 07:15:44;;;;;;;0.40;0.20;;;;;;;3.48;100.00;99534.53;5062826;28;20452;-82
2021/11/29 07:18:13;;;;;;;0.40;0.30;;;;;;;3.54;100.00;99541.44;5061297;28;20461;-82
2021/11/29 07:20:40;;;;;;;0.40;0.30;;;;;;;3.54;100.00;99552.16;5061822;28;20468;-82
2021/11/29 07:23:08;;;;;;;0.40;0.30;;;;;;;3.61;100.00;99544.59;5061245;28;20462;-82
2021/11/29 07:25:35;;;;;;;0.40;0.30;;;;;;;3.56;100.00;99541.19;5061027;28;20484;-82
2021/11/29 07:28:01;;;;;;;0.40;0.30;;;;;;;3.54;100.00;99549.47;5061153;28;20438;-84
2021/11/29 07:30:30;;;;;;;0.40;0.20;;;;;;;3.53;100.00;99550.56;5059604;28;20535;-85
2021/11/29 07:32:57;;;;;;;0.63;0.63;;;;;;;3.62;100.00;99554.22;5060481;28;20470;-81
2021/11/29 07:35:27;;;;;;;0.40;0.20;;;;;;;3.69;100.00;99557.41;5060234;28;20450;-84
2021/11/29 07:37:56;;;;;;;0.40;0.20;;;;;;;3.74;100.00;99565.38;5060378;28;20442;-85
2021/11/29 07:40:28;;;;;;;0.40;0.20;;;;;;;3.74;100.00;99556.56;5061614;28;20449;-84
2021/11/29 07:42:55;;;;;;;0.40;0.20;;;;;;;3.74;100.00;99561.91;5060731;28;20458;-85
2021/11/29 07:45:22;;;;;;;0.40;0.30;;;;;;;3.77;100.00;99572.88;5059741;28;20442;-85
2021/11/29 07:47:50;;;;;;;0.40;0.30;;;;;;;3.76;100.00;99570.44;5060104;28;20446;-85
2021/11/29 07:50:18;;;;;;;0.40;0.30;;;;;;;3.78;100.00;99574.44;5059782;28;20516;-86
2021/11/29 07:52:47;;;;;;;0.40;0.30;;;;;;;3.80;100.00;99582.19;5059904;28;20466;-84
2021/11/29 07:55:16;;;;;;;0.40;0.30;;;;;;;3.78;100.00;99581.69;5060061;28;20423;-84
2021/11/29 07:57:43;;;;;;;0.40;0.20;;;;;;;3.82;100.00;99579.25;5060641;28;20490;-84
2021/11/29 08:00:17;;;;;;;0.40;0.20;;;;;;;3.84;100.00;99585.91;5059747;28;20458;-85
2021/11/29 08:02:44;;;;;;;0.40;0.20;;;;;;;3.85;100.00;99582.19;5063921;28;20997;-82
2021/11/29 08:05:13;;;;;;;0.40;0.30;;;;;;;3.90;100.00;99592.06;5065307;28;20484;-83
2021/11/29 08:07:40;;;;;;;0.40;0.30;;;;;;;3.85;100.00;99595.56;5063039;28;20834;-85
2021/11/29 08:10:07;;;;;;;0.40;0.30;;;;;;;3.79;100.00;99602.81;5060702;28;20445;-85
2021/11/29 08:12:34;;;;;;;0.40;0.30;;;;;;;3.82;100.00;99604.16;5061073;28;20543;-85
2021/11/29 08:15:01;;;;;;;0.40;0.20;;;;;;;3.83;100.00;99607.63;5060055;28;20943;-86
2021/11/29 08:17:28;;;;;;;0.40;0.23;;;;;;;3.84;100.00;99598.50;5060453;28;20512;-84
2021/11/29 08:19:55;;;;;;;0.40;0.30;;;;;;;3.79;100.00;99605.50;5058130;28;20430;-82
2021/11/29 08:22:23;;;;;;;0.40;0.30;;;;;;;3.75;100.00;99607.16;5049860;28;20447;-80
2021/11/29 08:24:50;;;;;;;0.40;0.30;;;;;;;3.81;100.00;99605.25;5040901;28;20860;-80
2021/11/29 08:27:20;;;;;;;0.40;0.30;;;;;;;3.82;100.00;99612.19;5056773;28;20454;-81
2021/11/29 08:29:47;;;;;;;0.40;0.30;;;;;;;3.82;100.00;99616.75;5064031;28;20825;-83
2021/11/29 08:32:16;;;;;;;0.40;0.30;;;;;;;3.80;100.00;99615.13;5059440;28;20497;-83
2021/11/29 08:34:43;;;;;;;0.60;0.57;;;;;;;3.79;100.00;99612.75;5058055;28;20458;-83
2021/11/29 08:37:10;;;;;;;0.40;0.20;;;;;;;3.83;100.00;99613.00;5057906;28;20442;-83
2021/11/29 08:39:39;;;;;;;0.50;0.30;;;;;;;3.86;100.00;99615.13;5057295;28;20441;-83
2021/11/29 08:42:07;;;;;;;0.50;0.30;;;;;;;3.86;100.00;99625.84;5057085;28;20451;-81
2021/11/29 08:44:34;;;;;;;0.40;0.30;;;;;;;3.77;100.00;99618.38;5058588;28;20450;-81
2021/11/29 08:47:03;;;;;;;0.40;0.20;;;;;;;3.79;100.00;99613.53;5037569;28;20513;-82
2021/11/29 08:49:30;;;;;;;0.40;0.27;;;;;;;3.79;100.00;99618.09;5037482;28;20431;-85
2021/11/29 08:51:58;;;;;;;1.63;0.40;;;;;;;3.81;100.00;99624.00;5048403;28;20482;-82
2021/11/29 08:54:25;;;;;;;3.60;3.40;;;;;;;3.79;100.00;99618.09;5057436;28;20454;-82
2021/11/29 08:56:54;;;;;;;0.40;0.30;;;;;;;3.83;100.00;99627.19;5057624;28;20446;-82
2021/11/29 08:59:22;;;;;;;0.40;0.20;;;;;;;3.84;100.00;99625.28;5056775;28;20951;-83
2021/11/29 09:01:51;;;;;;;0.40;0.30;;;;;;;3.82;100.00;99630.94;5057477;28;20457;-81
2021/11/29 09:04:18;;;;;;;0.50;0.30;;;;;;;3.91;100.00;99631.94;5058299;28;20462;-82
2021/11/29 09:06:45;;;;;;;0.40;0.30;;;;;;;3.91;100.00;99629.25;5057416;28;20938;-84
2021/11/29 09:09:12;;;;;;;0.40;0.30;;;;;;;3.95;100.00;99634.88;5057523;28;20497;-86
2021/11/29 09:11:38;;;;;;;0.40;0.20;;;;;;;4.01;100.00;99639.09;5057228;28;20474;-87
2021/11/29 09:14:07;;;;;;;0.40;0.30;;;;;;;4.00;100.00;99634.81;5057426;28;21064;-86
2021/11/29 09:16:34;;;;;;;0.40;0.20;;;;;;;4.09;100.00;99646.53;5057950;28;20927;-83
2021/11/29 09:19:00;;;;;;;0.40;0.20;;;;;;;4.05;100.00;99648.16;5057900;28;20450;-86
2021/11/29 09:21:27;;;;;;;0.40;0.30;;;;;;;4.01;100.00;99644.44;5057385;28;20481;-85
2021/11/29 09:23:54;;;;;;;0.40;0.30;;;;;;;4.00;100.00;99651.69;5056883;28;20463;-86
2021/11/29 09:26:21;;;;;;;0.40;0.30;;;;;;;4.01;100.00;99647.91;5057512;28;20461;-85
2021/11/29 09:28:48;;;;;;;2.50;2.30;;;;;;;4.01;100.00;99644.44;5057342;28;20442;-86
2021/11/29 09:31:17;;;;;;;0.40;0.30;;;;;;;4.07;100.00;99647.88;5057781;28;20482;-83
2021/11/29 09:33:44;;;;;;;0.40;0.30;;;;;;;4.12;100.00;99651.34;5038197;28;20601;-84
2021/11/29 09:36:11;;;;;;;0.40;0.20;;;;;;;4.10;100.00;99653.47;5056253;28;20512;-84
2021/11/29 09:38:38;;;;;;;0.40;0.30;;;;;;;4.08;100.00;99650.28;5057614;28;20439;-83
2021/11/29 09:41:06;;;;;;;0.40;0.30;;;;;;;4.08;100.00;99650.28;5062424;28;20461;-83
2021/11/29 09:43:34;;;;;;;0.40;0.20;;;;;;;4.06;100.00;99652.44;5077535;28;20464;-83
2021/11/29 09:46:05;;;;;;;0.40;0.23;;;;;;;4.11;100.00;99647.03;5080524;28;20444;-82
2021/11/29 09:48:33;;;;;;;0.60;0.60;;;;;;;4.13;100.00;99644.88;5080397;28;20918;-83
2021/11/29 09:51:00;;;;;;;0.40;0.20;;;;;;;4.11;100.00;99641.69;5072919;28;20847;-83
2021/11/29 09:53:30;;;;;;;0.40;0.30;;;;;;;4.00;100.00;99637.50;5060348;28;20470;-83
2021/11/29 09:55:57;;;;;;;0.40;0.30;;;;;;;4.06;100.00;99633.69;5060268;28;20516;-83
2021/11/29 09:58:24;;;;;;;5.13;4.73;;;;;;;4.13;100.00;99636.06;5059946;28;20438;-82
2021/11/29 10:00:54;;;;;;;0.40;0.20;;;;;;;4.14;100.00;99629.59;5060369;28;20512;-83
2021/11/29 10:03:22;;;;;;;0.40;0.30;;;;;;;4.16;100.00;99638.97;5059297;28;20466;-84
2021/11/29 10:05:52;;;;;;;0.40;0.20;;;;;;;4.17;100.00;99637.88;5058794;28;20443;-83
2021/11/29 10:08:24;;;;;;;0.40;0.23;;;;;;;3.99;100.00;99642.06;5058815;28;20447;-82
2021/11/29 10:10:53;;;;;;;0.40;0.30;;;;;;;3.91;100.00;99652.56;5050824;28;20450;-83
2021/11/29 10:13:21;;;;;;;0.40;0.30;;;;;;;3.94;100.00;99652.00;5056566;28;20477;-83
2021/11/29 10:15:48;;;;;;;0.47;0.30;;;;;;;3.92;100.00;99660.31;5057775;28;20858;-83
2021/11/29 10:18:17;;;;;;;0.40;0.30;;;;;;;3.96;100.00;99658.69;5057323;28;20499;-83
2021/11/29 10:20:58;;;;;;;0.40;0.30;;;;;;;4.01;100.00;99663.19;5057010;28;20889;-83
2021/11/29 10:23:28;;;;;;;0.40;0.20;;;;;;;4.04;100.00;99654.63;5058501;28;20477;-83
2021/11/29 10:25:55;;;;;;;0.40;0.30;;;;;;;4.09;100.00;99665.28;5057109;28;20443;-83
2021/11/29 10:28:28;;;;;;;0.50;0.40;;;;;;;4.15;100.00;99658.78;5057613;28;20442;-83
2021/11/29 10:31:11;;;;;;;0.40;0.30;;;;;;;3.98;100.00;99658.41;5056211;28;20434;-83
2021/11/29 10:33:51;;;;;;;0.50;0.40;;;;;;;3.91;100.00;99663.28;5056928;28;20454;-82
2021/11/29 10:36:21;;;;;;;0.40;0.20;;;;;;;3.94;100.00;99657.34;5060899;28;20480;-83
2021/11/29 10:38:52;;;;;;;0.40;0.20;;;;;;;3.93;100.00;99672.63;5057528;28;20447;-83
2021/11/29 10:41:24;;;;;;;0.40;0.20;;;;;;;3.94;100.00;99670.75;5057879;28;20431;-83
2021/11/29 10:43:51;;;;;;;0.40;0.30;;;;;;;3.95;100.00;99662.44;5056973;28;20843;-83
2021/11/29 10:46:20;;;;;;;0.40;0.20;;;;;;;3.99;100.00;99668.06;5055677;28;20468;-84
2021/11/29 10:48:47;;;;;;;0.40;0.20;;;;;;;3.95;100.00;99669.69;5056264;28;20939;-85
2021/11/29 10:51:17;;;;;;;0.40;0.30;;;;;;;4.04;100.00;99668.00;5056436;28;20854;-85
2021/11/29 10:54:04;;;;;;;0.40;0.30;;;;;;;4.08;100.00;99674.41;5056785;28;20466;-86
2021/11/29 10:56:32;;;;;;;0.40;0.20;;;;;;;4.11;100.00;99665.00;5056565;28;20920;-85
2021/11/29 10:59:01;;;;;;;0.40;0.30;;;;;;;4.15;100.00;99669.50;5056319;28;20932;-86
2021/11/29 11:01:37;;;;;;;0.40;0.30;;;;;;;4.19;100.00;99669.75;5057462;28;20445;-86
2021/11/29 11:04:06;;;;;;;0.40;0.23;;;;;;;4.14;100.00;99678.63;5057495;28;20481;-86
2021/11/29 11:06:35;;;;;;;0.40;0.30;;;;;;;4.21;100.00;99679.13;5057072;28;20438;-85
2021/11/29 11:09:11;;;;;;;0.40;0.27;;;;;;;4.21;100.00;99681.00;5057357;28;20442;-85
2021/11/29 11:11:42;;;;;;;2.67;2.50;;;;;;;4.29;100.00;99683.06;5056139;28;20556;-85
2021/11/29 11:14:12;;;;;;;0.40;0.20;;;;;;;4.17;100.00;99680.75;5057087;28;20470;-84
2021/11/29 11:16:50;;;;;;;0.40;0.20;;;;;;;4.15;100.00;99688.28;5056283;28;20446;-85
2021/11/29 11:19:26;;;;;;;0.60;0.30;;;;;;;4.10;100.00;99691.00;5055766;28;20437;-85
2021/11/29 11:21:54;;;;;;;0.40;0.20;;;;;;;4.17;100.00;99683.44;5055635;28;20480;-83
2021/11/29 11:24:26;;;;;;;0.40;0.20;;;;;;;4.19;100.00;99693.88;5055670;28;20465;-83
2021/11/29 11:26:56;;;;;;;0.40;0.30;;;;;;;4.21;100.00;99689.84;5056141;28;20789;-83
2021/11/29 11:29:51;;;;;;;0.40;0.20;;;;;;;4.28;100.00;99692.97;5055180;28;20915;-82
2021/11/29 11:32:31;;;;;;;0.40;0.20;;;;;;;4.40;100.00;99683.78;5045847;28;20486;-82
2021/11/29 11:35:02;;;;;;;0.40;0.30;;;;;;;4.42;100.00;99687.75;5055206;28;20978;-83
2021/11/29 11:37:31;;;;;;;0.40;0.20;;;;;;;4.40;100.00;99699.88;5055534;28;20442;-83